createdAt,value
2019-05-25T00:00:05.313Z,70.26
2019-05-25T00:02:36.693Z,70.24
2019-05-25T00:05:07.601Z,70.24
2019-05-25T00:07:37.077Z,70.26
2019-05-25T00:10:09.535Z,70.20
2019-05-25T00:12:39.142Z,70.37
2019-05-25T00:15:08.922Z,70.38
2019-05-25T00:17:41.171Z,70.30
2019-05-25T00:20:11.995Z,70.19
2019-05-25T00:22:42.614Z,70.20
2019-05-25T00:25:16.046Z,70.02
2019-05-25T00:27:46.862Z,69.56
2019-05-25T00:30:16.119Z,70.09
2019-05-25T00:32:47.153Z,69.78
2019-05-25T00:35:19.127Z,69.65
2019-05-25T00:37:51.217Z,69.27
2019-05-25T00:40:22.801Z,69.39
2019-05-25T00:42:55.477Z,69.31
2019-05-25T00:45:27.209Z,69.26
2019-05-25T00:48:00.359Z,69.26
2019-05-25T00:50:31.165Z,69.00
2019-05-25T00:53:00.956Z,69.11
2019-05-25T00:55:31.369Z,69.26
2019-05-25T00:58:04.586Z,69.25
2019-05-25T01:00:37.597Z,68.82
2019-05-25T01:03:07.981Z,68.23
2019-05-25T01:05:38.523Z,68.04
2019-05-25T01:08:07.885Z,68.07
2019-05-25T01:10:38.279Z,67.87
2019-05-25T01:13:07.702Z,68.30
2019-05-25T01:15:38.268Z,68.43
2019-05-25T01:18:07.758Z,69.24
2019-05-25T01:20:38.223Z,69.03
2019-05-25T01:23:08.446Z,68.87
2019-05-25T01:25:40.919Z,68.80
2019-05-25T01:28:11.468Z,68.65
2019-05-25T01:30:41.836Z,66.88
2019-05-25T01:33:11.696Z,67.55
2019-05-25T01:35:42.330Z,67.60
2019-05-25T01:38:15.625Z,67.93
2019-05-25T01:40:45.061Z,67.98
2019-05-25T01:43:14.522Z,67.70
2019-05-25T01:45:43.994Z,67.81
2019-05-25T01:48:12.485Z,68.03
2019-05-25T01:50:41.828Z,67.88
2019-05-25T01:53:12.460Z,68.36
2019-05-25T01:55:43.382Z,69.09
2019-05-25T01:58:13.793Z,68.96
2019-05-25T02:00:45.462Z,69.50
2019-05-25T02:03:15.871Z,69.28
2019-05-25T02:05:45.429Z,68.87
2019-05-25T02:08:17.365Z,68.48
2019-05-25T02:10:48.525Z,69.09
2019-05-25T02:13:18.147Z,69.75
2019-05-25T02:15:47.044Z,70.39
2019-05-25T02:18:17.469Z,70.58
2019-05-25T02:20:49.288Z,70.83
2019-05-25T02:23:21.201Z,70.48
2019-05-25T02:25:53.576Z,70.39
2019-05-25T02:28:23.982Z,70.65
2019-05-25T02:30:55.068Z,71.29
2019-05-25T02:33:24.595Z,71.69
2019-05-25T02:35:54.988Z,71.19
2019-05-25T02:38:23.790Z,72.47
2019-05-25T02:40:55.871Z,72.55
2019-05-25T02:43:26.310Z,72.67
2019-05-25T02:45:56.808Z,73.37
2019-05-25T02:48:27.303Z,73.79
2019-05-25T02:50:57.676Z,74.31
2019-05-25T02:53:27.075Z,74.80
2019-05-25T02:55:56.364Z,74.98
2019-05-25T02:58:27.287Z,75.04
2019-05-25T03:00:58.111Z,75.16
2019-05-25T03:03:28.827Z,75.11
2019-05-25T03:05:59.597Z,75.41
2019-05-25T03:08:31.256Z,75.54
2019-05-25T03:11:02.116Z,75.52
2019-05-25T03:13:33.165Z,75.66
2019-05-25T03:16:03.163Z,75.67
2019-05-25T03:18:33.554Z,75.86
2019-05-25T03:21:02.960Z,75.64
2019-05-25T03:23:33.337Z,75.94
2019-05-25T03:26:03.662Z,75.97
2019-05-25T03:28:35.182Z,75.08
2019-05-25T03:31:06.644Z,73.67
2019-05-25T03:33:39.965Z,74.03
2019-05-25T03:36:10.489Z,73.94
2019-05-25T03:38:40.814Z,72.89
2019-05-25T03:41:10.234Z,71.87
2019-05-25T03:43:39.011Z,71.61
2019-05-25T03:46:08.338Z,71.51
2019-05-25T03:48:37.939Z,71.07
2019-05-25T03:51:08.211Z,70.33
2019-05-25T03:53:38.549Z,68.74
2019-05-25T03:56:07.903Z,66.13
2019-05-25T03:58:37.235Z,63.24
2019-05-25T04:01:08.659Z,61.80
2019-05-25T04:03:40.335Z,60.17
2019-05-25T04:06:09.939Z,59.12
2019-05-25T04:08:39.389Z,59.46
2019-05-25T04:11:09.775Z,60.97
2019-05-25T04:13:40.215Z,62.53
2019-05-25T04:16:09.595Z,62.20
2019-05-25T04:18:38.944Z,60.25
2019-05-25T04:21:09.407Z,58.80
2019-05-25T04:23:39.932Z,57.00
2019-05-25T04:26:21.869Z,56.78
2019-05-25T04:31:12.081Z,45.74
2019-05-25T04:33:42.485Z,41.52
2019-05-25T04:36:13.832Z,41.52
2019-05-25T04:38:48.105Z,40.50
2019-05-25T04:41:17.601Z,44.95
2019-05-25T04:43:51.645Z,45.77
2019-05-25T04:46:23.568Z,40.81
2019-05-25T04:48:54.826Z,38.16
2019-05-25T04:51:24.278Z,36.17
2019-05-25T04:53:57.114Z,37.13
2019-05-25T04:56:38.865Z,32.89
2019-05-25T04:58:59.749Z,29.80
2019-05-25T05:01:29.709Z,27.93
2019-05-25T05:03:59.265Z,26.68
2019-05-25T05:06:30.900Z,25.11
2019-05-25T05:09:01.323Z,23.56
2019-05-25T05:11:31.695Z,21.33
2019-05-25T05:14:01.093Z,20.11
2019-05-25T05:16:31.496Z,18.80
2019-05-25T05:19:03.609Z,18.20
2019-05-25T05:21:33.975Z,17.01
2019-05-25T05:24:05.684Z,16.82
2019-05-25T05:26:36.083Z,19.61
2019-05-25T05:29:05.778Z,20.50
2019-05-25T05:31:37.687Z,20.50
2019-05-25T05:34:08.526Z,20.52
2019-05-25T05:36:40.485Z,20.77
2019-05-25T05:39:11.842Z,19.74
2019-05-25T05:41:43.383Z,17.34
2019-05-25T05:44:15.888Z,19.29
2019-05-25T05:46:50.933Z,18.07
2019-05-25T05:49:21.613Z,19.41
2019-05-25T05:51:52.953Z,21.02
2019-05-25T05:54:23.350Z,20.91
2019-05-25T05:56:52.962Z,18.97
2019-05-25T05:59:22.073Z,17.47
2019-05-25T06:01:53.625Z,16.37
2019-05-25T06:04:22.445Z,16.12
2019-05-25T06:06:52.650Z,15.69
2019-05-25T06:09:23.906Z,15.82
2019-05-25T06:11:54.516Z,14.81
2019-05-25T06:14:25.246Z,13.59
2019-05-25T06:16:56.165Z,14.55
2019-05-25T06:19:26.988Z,19.36
2019-05-25T06:21:58.962Z,24.57
2019-05-25T06:24:29.582Z,28.10
2019-05-25T06:26:59.813Z,29.37
2019-05-25T06:29:30.293Z,27.37
2019-05-25T06:32:00.798Z,23.29
2019-05-25T06:34:30.295Z,18.77
2019-05-25T06:36:59.885Z,18.81
2019-05-25T06:39:29.398Z,22.08
2019-05-25T06:42:01.682Z,18.79
2019-05-25T06:44:34.183Z,23.79
2019-05-25T06:47:03.994Z,18.24
2019-05-25T06:49:34.090Z,14.60
2019-05-25T06:52:03.660Z,15.66
2019-05-25T06:54:35.590Z,11.01
2019-05-25T06:57:06.631Z,12.09
2019-05-25T06:59:37.238Z,15.84
2019-05-25T07:02:08.059Z,18.01
2019-05-25T07:04:38.317Z,18.01
2019-05-25T07:07:09.292Z,18.52
2019-05-25T07:09:42.992Z,19.24
2019-05-25T07:12:12.435Z,19.24
2019-05-25T07:14:42.813Z,20.53
2019-05-25T07:17:12.173Z,20.22
2019-05-25T07:19:43.205Z,20.08
2019-05-25T07:22:16.738Z,20.57
2019-05-25T07:24:46.105Z,18.25
2019-05-25T07:27:16.728Z,18.54
2019-05-25T07:29:47.642Z,16.59
2019-05-25T07:32:20.765Z,15.02
2019-05-25T07:34:54.821Z,16.07
2019-05-25T07:37:25.620Z,15.84
2019-05-25T07:39:56.054Z,17.56
2019-05-25T07:42:26.559Z,14.43
2019-05-25T07:44:58.642Z,12.51
2019-05-25T07:47:28.122Z,12.85
2019-05-25T07:49:57.612Z,15.23
2019-05-25T07:52:30.063Z,17.61
2019-05-25T07:55:01.875Z,18.93
2019-05-25T07:57:32.786Z,17.91
2019-05-25T08:00:02.252Z,16.19
2019-05-25T08:02:33.150Z,13.38
2019-05-25T08:05:04.182Z,14.05
2019-05-25T08:07:36.151Z,15.63
2019-05-25T08:10:07.822Z,17.45
2019-05-25T08:12:37.620Z,17.98
2019-05-25T08:15:09.616Z,18.03
2019-05-25T08:17:40.189Z,17.45
2019-05-25T08:20:12.568Z,16.72
2019-05-25T08:22:43.183Z,17.89
2019-05-25T08:25:12.754Z,17.46
2019-05-25T08:27:42.215Z,16.78
2019-05-25T08:30:14.276Z,16.42
2019-05-25T08:32:46.161Z,16.08
2019-05-25T08:35:15.983Z,12.67
2019-05-25T08:37:45.549Z,11.00
2019-05-25T08:40:16.646Z,12.26
2019-05-25T08:42:47.680Z,11.95
2019-05-25T08:45:20.213Z,11.01
2019-05-25T08:47:49.690Z,11.37
2019-05-25T08:50:37.095Z,10.21
2019-05-25T08:52:54.943Z,9.16
2019-05-25T08:55:27.252Z,10.27
2019-05-25T08:57:59.741Z,9.78
2019-05-25T09:00:30.665Z,9.91
2019-05-25T09:03:01.059Z,9.57
2019-05-25T09:05:30.558Z,9.43
2019-05-25T09:08:00.106Z,9.47
2019-05-25T09:10:30.602Z,8.92
2019-05-25T09:13:00.179Z,9.29
2019-05-25T09:15:29.568Z,9.29
2019-05-25T09:18:00.550Z,10.19
2019-05-25T09:20:32.688Z,11.12
2019-05-25T09:23:05.970Z,11.00
2019-05-25T09:25:40.350Z,10.26
2019-05-25T09:28:11.531Z,10.50
2019-05-25T09:30:44.186Z,11.90
2019-05-25T09:33:17.723Z,12.44
2019-05-25T09:35:50.158Z,12.45
2019-05-25T09:38:20.738Z,10.74
2019-05-25T09:40:54.768Z,10.39
2019-05-25T09:43:33.945Z,10.41
2019-05-25T09:46:05.748Z,11.48
2019-05-25T09:48:38.336Z,11.44
2019-05-25T09:51:15.389Z,12.48
2019-05-25T09:53:42.251Z,14.73
2019-05-25T09:56:13.839Z,14.35
2019-05-25T09:58:46.220Z,14.00
2019-05-25T10:01:16.843Z,14.13
2019-05-25T10:03:47.846Z,15.29
2019-05-25T10:06:17.282Z,18.30
2019-05-25T10:08:49.725Z,19.50
2019-05-25T10:11:22.934Z,20.10
2019-05-25T10:13:52.459Z,20.39
2019-05-25T10:16:21.994Z,19.65
2019-05-25T10:18:53.624Z,21.75
2019-05-25T10:21:24.510Z,20.96
2019-05-25T10:23:53.360Z,20.45
2019-05-25T10:26:23.168Z,22.62
2019-05-25T10:28:52.981Z,20.51
2019-05-25T10:31:23.908Z,22.22
2019-05-25T10:33:54.861Z,22.07
2019-05-25T10:36:25.576Z,21.17
2019-05-25T10:38:54.317Z,21.32
2019-05-25T10:41:24.813Z,21.67
2019-05-25T10:43:55.117Z,20.72
2019-05-25T10:46:28.798Z,22.40
2019-05-25T10:49:00.901Z,23.38
2019-05-25T10:51:32.106Z,23.40
2019-05-25T10:54:01.639Z,22.04
2019-05-25T10:56:33.373Z,22.30
2019-05-25T10:59:03.793Z,23.70
2019-05-25T11:01:34.235Z,22.46
2019-05-25T11:04:04.710Z,21.60
2019-05-25T11:06:36.214Z,21.60
2019-05-25T11:09:12.211Z,21.42
2019-05-25T11:11:42.612Z,21.57
2019-05-25T11:14:11.979Z,20.52
2019-05-25T11:16:41.369Z,21.05
2019-05-25T11:19:13.345Z,20.70
2019-05-25T11:21:42.668Z,21.70
2019-05-25T11:24:16.308Z,21.58
2019-05-25T11:26:46.832Z,21.41
2019-05-25T11:29:17.869Z,21.32
2019-05-25T11:31:56.736Z,21.07
2019-05-25T11:34:22.249Z,21.27
2019-05-25T11:36:53.252Z,21.95
2019-05-25T11:39:25.739Z,22.28
2019-05-25T11:41:55.009Z,21.51
2019-05-25T11:44:27.538Z,22.55
2019-05-25T11:46:58.426Z,23.56
2019-05-25T11:49:29.763Z,25.70
2019-05-25T11:52:00.269Z,25.99
2019-05-25T11:54:31.304Z,26.48
2019-05-25T11:57:01.916Z,27.21
2019-05-25T11:59:37.131Z,27.08
2019-05-25T12:02:08.907Z,25.15
2019-05-25T12:04:39.419Z,26.05
2019-05-25T12:07:09.834Z,26.73
2019-05-25T12:09:42.934Z,25.53
2019-05-25T12:12:12.543Z,25.26
2019-05-25T12:14:41.073Z,25.12
2019-05-25T12:17:10.989Z,24.37
2019-05-25T12:19:41.736Z,24.63
2019-05-25T12:22:12.011Z,24.66
2019-05-25T12:24:41.080Z,25.26
2019-05-25T12:27:13.572Z,22.76
2019-05-25T12:29:44.292Z,23.08
2019-05-25T12:32:15.742Z,22.39
2019-05-25T12:34:45.368Z,22.58
2019-05-25T12:37:19.478Z,21.25
2019-05-25T12:39:49.068Z,21.79
2019-05-25T12:42:19.908Z,22.49
2019-05-25T12:44:52.473Z,21.91
2019-05-25T12:47:24.570Z,22.12
2019-05-25T12:49:54.956Z,22.48
2019-05-25T12:52:25.252Z,23.00
2019-05-25T12:54:55.775Z,22.95
2019-05-25T12:57:25.582Z,22.89
2019-05-25T12:59:56.066Z,23.62
2019-05-25T13:02:29.696Z,23.11
2019-05-25T13:05:00.318Z,23.59
2019-05-25T13:07:30.718Z,25.36
2019-05-25T13:10:01.167Z,27.54
2019-05-25T13:12:31.954Z,29.85
2019-05-25T13:15:02.935Z,32.57
2019-05-25T13:17:33.822Z,33.70
2019-05-25T13:20:03.207Z,35.57
2019-05-25T13:22:34.210Z,35.50
2019-05-25T13:25:04.809Z,35.42
2019-05-25T13:27:36.684Z,34.61
2019-05-25T13:30:10.268Z,33.33
2019-05-25T13:32:40.620Z,33.28
2019-05-25T13:35:13.742Z,32.52
2019-05-25T13:37:43.157Z,33.09
2019-05-25T13:40:18.416Z,32.61
2019-05-25T13:42:50.289Z,31.80
2019-05-25T13:45:23.633Z,31.55
2019-05-25T13:47:54.574Z,31.94
2019-05-25T13:50:24.112Z,32.01
2019-05-25T13:52:54.733Z,32.24
2019-05-25T13:55:25.818Z,30.30
2019-05-25T13:57:58.766Z,30.81
2019-05-25T14:00:29.882Z,30.67
2019-05-25T14:03:05.124Z,31.03
2019-05-25T14:05:35.740Z,31.20
2019-05-25T14:08:10.010Z,31.84
2019-05-25T14:10:42.086Z,33.11
2019-05-25T14:13:12.626Z,33.51
2019-05-25T14:15:43.767Z,31.85
2019-05-25T14:18:14.796Z,32.18
2019-05-25T14:20:46.327Z,33.24
2019-05-25T14:23:18.817Z,33.09
2019-05-25T14:25:49.532Z,32.06
2019-05-25T14:28:20.289Z,31.97
2019-05-25T14:30:50.971Z,31.53
2019-05-25T14:33:21.497Z,32.12
2019-05-25T14:35:50.213Z,32.99
2019-05-25T14:38:19.803Z,31.49
2019-05-25T14:40:51.287Z,32.00
2019-05-25T14:43:21.961Z,31.82
2019-05-25T14:45:53.494Z,32.60
2019-05-25T14:48:24.761Z,32.25
2019-05-25T14:50:55.364Z,33.76
2019-05-25T14:53:26.137Z,34.42
2019-05-25T14:55:56.594Z,35.00
2019-05-25T14:58:27.535Z,36.00
2019-05-25T15:01:01.014Z,35.98
2019-05-25T15:03:33.346Z,36.39
2019-05-25T15:06:05.529Z,36.50
2019-05-25T15:08:39.482Z,37.10
2019-05-25T15:11:08.787Z,36.82
2019-05-25T15:13:43.133Z,36.59
2019-05-25T15:16:16.028Z,36.54
2019-05-25T15:18:46.330Z,36.04
2019-05-25T15:21:16.838Z,34.84
2019-05-25T15:23:46.568Z,34.09
2019-05-25T15:26:17.137Z,35.51
2019-05-25T15:28:49.205Z,35.92
2019-05-25T15:31:19.921Z,35.52
2019-05-25T15:33:51.624Z,35.96
2019-05-25T15:36:23.471Z,36.19
2019-05-25T15:38:54.063Z,36.94
2019-05-25T15:41:25.935Z,36.14
2019-05-25T15:43:55.619Z,36.01
2019-05-25T15:46:25.994Z,35.61
2019-05-25T15:48:56.735Z,36.16
2019-05-25T15:51:29.234Z,36.53
2019-05-25T15:54:00.875Z,34.37
2019-05-25T15:56:32.890Z,36.14
2019-05-25T15:59:03.263Z,35.26
2019-05-25T16:01:33.679Z,35.00
2019-05-25T16:04:05.753Z,34.91
2019-05-25T16:06:35.752Z,34.87
2019-05-25T16:09:08.675Z,35.46
2019-05-25T16:11:42.924Z,35.47
2019-05-25T16:14:12.594Z,35.86
2019-05-25T16:16:42.307Z,36.13
2019-05-25T16:19:12.879Z,35.89
2019-05-25T16:21:43.595Z,35.96
2019-05-25T16:24:14.642Z,35.97
2019-05-25T16:26:46.224Z,35.81
2019-05-25T16:29:16.500Z,35.22
2019-05-25T16:31:46.995Z,34.59
2019-05-25T16:34:16.375Z,35.28
2019-05-25T16:36:47.179Z,33.45
2019-05-25T16:39:17.315Z,32.70
2019-05-25T16:41:47.990Z,33.28
2019-05-25T16:44:19.950Z,34.74
2019-05-25T16:46:52.144Z,34.70
2019-05-25T16:49:22.556Z,34.93
2019-05-25T16:51:53.267Z,35.58
2019-05-25T16:54:24.525Z,36.48
2019-05-25T16:56:58.673Z,36.49
2019-05-25T16:59:30.675Z,37.13
2019-05-25T17:02:01.787Z,36.93
2019-05-25T17:04:34.279Z,37.06
2019-05-25T17:07:03.945Z,39.37
2019-05-25T17:09:34.884Z,39.81
2019-05-25T17:12:05.614Z,39.69
2019-05-25T17:14:36.112Z,39.86
2019-05-25T17:17:05.631Z,40.53
2019-05-25T17:19:34.986Z,41.32
2019-05-25T17:22:03.804Z,41.90
2019-05-25T17:24:34.289Z,43.69
2019-05-25T17:27:04.934Z,44.16
2019-05-25T17:29:38.259Z,43.95
2019-05-25T17:32:09.058Z,43.75
2019-05-25T17:34:40.928Z,43.00
2019-05-25T17:37:11.550Z,43.90
2019-05-25T17:39:41.942Z,42.91
2019-05-25T17:42:11.426Z,44.10
2019-05-25T17:44:43.379Z,43.93
2019-05-25T17:47:15.669Z,45.29
2019-05-25T17:49:45.084Z,45.45
2019-05-25T17:52:15.438Z,45.27
2019-05-25T17:54:45.839Z,44.81
2019-05-25T17:57:16.150Z,45.71
2019-05-25T17:59:45.092Z,46.30
2019-05-25T18:02:17.395Z,46.59
2019-05-25T18:04:46.837Z,47.36
2019-05-25T18:07:17.141Z,46.81
2019-05-25T18:09:46.505Z,47.28
2019-05-25T18:12:16.902Z,46.35
2019-05-25T18:14:47.635Z,46.35
2019-05-25T18:17:18.146Z,46.19
2019-05-25T18:19:46.971Z,46.56
2019-05-25T18:22:17.706Z,46.62
2019-05-25T18:24:49.592Z,47.03
2019-05-25T18:27:19.887Z,47.39
2019-05-25T18:29:49.325Z,47.71
2019-05-25T18:32:19.838Z,48.60
2019-05-25T18:34:49.624Z,49.77
2019-05-25T18:37:21.095Z,49.77
2019-05-25T18:39:51.632Z,49.64
2019-05-25T18:42:24.590Z,49.75
2019-05-25T18:44:57.500Z,50.18
2019-05-25T18:47:27.907Z,50.80
2019-05-25T18:49:59.364Z,51.20
2019-05-25T18:52:28.653Z,51.51
2019-05-25T18:54:59.541Z,52.07
2019-05-25T18:57:31.416Z,52.29
2019-05-25T19:00:01.921Z,52.72
2019-05-25T19:02:32.235Z,52.95
2019-05-25T19:05:02.630Z,52.88
2019-05-25T19:07:33.205Z,53.27
2019-05-25T19:10:02.575Z,54.44
2019-05-25T19:12:34.727Z,54.59
2019-05-25T19:15:04.495Z,55.10
2019-05-25T19:17:33.870Z,55.10
2019-05-25T19:20:02.771Z,55.07
2019-05-25T19:22:33.061Z,55.38
2019-05-25T19:25:03.977Z,55.44
2019-05-25T19:27:36.821Z,56.02
2019-05-25T19:30:10.651Z,56.24
2019-05-25T19:32:41.160Z,56.29
2019-05-25T19:35:10.840Z,56.54
2019-05-25T19:37:42.374Z,56.82
2019-05-25T19:40:13.871Z,57.14
2019-05-25T19:42:44.657Z,58.00
2019-05-25T19:45:15.284Z,57.91
2019-05-25T19:47:44.802Z,58.02
2019-05-25T19:50:16.055Z,58.16
2019-05-25T19:52:47.252Z,58.19
2019-05-25T19:55:18.203Z,58.19
2019-05-25T19:57:49.498Z,58.51
2019-05-25T20:00:23.119Z,58.62
2019-05-25T20:02:53.662Z,58.89
2019-05-25T20:05:23.131Z,59.62
2019-05-25T20:07:52.702Z,59.99
2019-05-25T20:10:24.146Z,59.98
2019-05-25T20:12:56.127Z,59.97
2019-05-25T20:15:26.642Z,60.22
2019-05-25T20:17:57.351Z,60.35
2019-05-25T20:20:28.897Z,60.17
2019-05-25T20:22:59.297Z,60.01
2019-05-25T20:25:30.934Z,60.14
2019-05-25T20:28:01.585Z,60.74
2019-05-25T20:30:30.494Z,60.59
2019-05-25T20:33:01.709Z,61.10
2019-05-25T20:35:34.353Z,61.33
2019-05-25T20:38:04.760Z,61.44
2019-05-25T20:40:36.068Z,61.90
2019-05-25T20:43:05.470Z,62.49
2019-05-25T20:45:37.703Z,64.25
2019-05-25T20:48:10.792Z,63.37
2019-05-25T20:50:40.145Z,65.28
2019-05-25T20:53:12.415Z,65.37
2019-05-25T20:55:44.644Z,66.41
2019-05-25T20:58:15.015Z,67.23
2019-05-25T21:00:44.411Z,67.03
2019-05-25T21:03:14.766Z,67.06
2019-05-25T21:05:50.461Z,67.06
2019-05-25T21:08:15.305Z,67.01
2019-05-25T21:10:45.710Z,67.48
2019-05-25T21:13:15.144Z,67.63
2019-05-25T21:15:44.642Z,67.16
2019-05-25T21:18:14.086Z,67.11
2019-05-25T21:20:46.354Z,67.38
2019-05-25T21:23:15.759Z,67.14
2019-05-25T21:25:46.642Z,67.20
2019-05-25T21:28:17.278Z,67.52
2019-05-25T21:30:48.506Z,67.49
2019-05-25T21:33:17.863Z,68.05
2019-05-25T21:36:06.326Z,68.35
2019-05-25T21:38:19.932Z,68.68
2019-05-25T21:40:50.689Z,68.43
2019-05-25T21:43:20.941Z,68.68
2019-05-25T21:45:51.438Z,67.94
2019-05-25T21:48:22.277Z,68.04
2019-05-25T21:50:52.892Z,67.90
2019-05-25T21:53:21.733Z,68.46
2019-05-25T21:55:53.613Z,68.55
2019-05-25T21:58:23.233Z,68.56
2019-05-25T22:00:55.314Z,68.87
2019-05-25T22:03:28.366Z,69.22
2019-05-25T22:05:57.766Z,69.35
2019-05-25T22:08:26.241Z,69.33
2019-05-25T22:10:55.780Z,69.26
2019-05-25T22:13:28.662Z,69.34
2019-05-25T22:15:56.483Z,69.42
2019-05-25T22:18:26.922Z,69.27
2019-05-25T22:20:57.344Z,69.30
2019-05-25T22:23:28.821Z,69.14
2019-05-25T22:25:58.202Z,69.11
2019-05-25T22:28:43.821Z,69.14
2019-05-25T22:30:59.633Z,68.79
2019-05-25T22:33:31.702Z,69.02
2019-05-25T22:36:02.630Z,69.24
2019-05-25T22:38:33.156Z,69.19
2019-05-25T22:41:03.511Z,68.67
2019-05-25T22:43:34.019Z,68.57
2019-05-25T22:46:03.426Z,68.42
2019-05-25T22:48:32.848Z,68.02
2019-05-25T22:51:03.358Z,67.54
2019-05-25T22:53:33.770Z,67.74
2019-05-25T22:56:04.170Z,67.04
2019-05-25T22:58:33.570Z,66.76
2019-05-25T23:01:05.869Z,66.42
2019-05-25T23:03:36.338Z,66.23
2019-05-25T23:06:08.822Z,66.89
2019-05-25T23:08:39.253Z,66.59
2019-05-25T23:11:08.643Z,65.52
2019-05-25T23:13:38.163Z,65.53
2019-05-25T23:16:09.230Z,65.33
2019-05-25T23:18:39.807Z,65.13
2019-05-25T23:21:09.321Z,65.08
2019-05-25T23:23:40.092Z,65.11
2019-05-25T23:26:15.203Z,65.41
2019-05-25T23:28:45.551Z,65.87
2019-05-25T23:31:15.910Z,65.54
2019-05-25T23:33:47.924Z,65.97
2019-05-25T23:36:18.286Z,65.10
2019-05-25T23:38:49.009Z,66.21
2019-05-25T23:41:19.728Z,65.85
2019-05-25T23:43:49.345Z,66.18
2019-05-25T23:46:21.164Z,66.15
2019-05-25T23:48:51.672Z,67.26
2019-05-25T23:51:21.088Z,66.75
2019-05-25T23:53:51.538Z,66.17
2019-05-25T23:56:21.927Z,67.49
2019-05-25T23:58:51.356Z,67.71
